createdAt,value
2022-12-03T00:00:12.798Z,9.02
2022-12-03T00:02:41.233Z,9.57
2022-12-03T00:05:09.951Z,9.00
2022-12-03T00:07:37.665Z,9.07
2022-12-03T00:10:06.628Z,8.73
2022-12-03T00:12:34.222Z,8.50
2022-12-03T00:15:03.259Z,8.98
2022-12-03T00:17:30.816Z,8.60
2022-12-03T00:19:58.406Z,8.43
2022-12-03T00:22:26.028Z,9.43
2022-12-03T00:24:53.910Z,9.23
2022-12-03T00:27:21.989Z,8.98
2022-12-03T00:29:51.111Z,9.55
2022-12-03T00:32:20.021Z,9.50
2022-12-03T00:34:47.698Z,8.93
2022-12-03T00:37:15.400Z,8.52
2022-12-03T00:39:43.070Z,8.57
2022-12-03T00:42:10.713Z,9.05
2022-12-03T00:44:38.374Z,8.10
2022-12-03T00:47:06.099Z,9.48
2022-12-03T00:49:35.071Z,8.60
2022-12-03T00:52:02.979Z,7.93
2022-12-03T00:54:32.204Z,8.82
2022-12-03T00:57:00.221Z,9.60
2022-12-03T00:59:27.797Z,8.43
2022-12-03T01:01:55.554Z,9.80
2022-12-03T01:04:23.262Z,10.18
2022-12-03T01:06:52.257Z,8.35
2022-12-03T01:09:19.938Z,7.63
2022-12-03T01:11:47.544Z,8.43
2022-12-03T01:14:18.214Z,8.63
2022-12-03T01:16:46.227Z,8.98
2022-12-03T01:19:16.334Z,9.43
2022-12-03T01:21:45.302Z,8.15
2022-12-03T01:24:14.598Z,9.40
2022-12-03T01:26:42.421Z,7.93
2022-12-03T01:29:10.113Z,8.90
2022-12-03T01:31:55.487Z,8.45
2022-12-03T01:34:23.098Z,8.82
2022-12-03T01:36:52.313Z,8.48
2022-12-03T01:39:21.360Z,8.50
2022-12-03T01:41:50.143Z,9.10
2022-12-03T01:44:21.386Z,8.15
2022-12-03T01:46:51.600Z,8.90
2022-12-03T01:49:22.790Z,8.25
2022-12-03T01:51:53.302Z,8.48
2022-12-03T01:54:27.160Z,8.15
2022-12-03T01:56:56.242Z,8.38
2022-12-03T01:59:33.663Z,8.93
2022-12-03T02:02:06.527Z,7.95
2022-12-03T02:04:34.348Z,8.30
2022-12-03T02:07:20.861Z,8.02
2022-12-03T02:09:49.833Z,8.55
2022-12-03T02:12:22.442Z,8.45
2022-12-03T02:14:50.814Z,8.88
2022-12-03T02:17:18.972Z,8.02
2022-12-03T02:19:47.519Z,8.05
2022-12-03T02:22:25.768Z,8.20
2022-12-03T02:25:00.023Z,8.18
2022-12-03T02:27:29.694Z,8.02
2022-12-03T02:29:57.551Z,8.90
2022-12-03T02:32:25.327Z,7.80
2022-12-03T02:34:53.239Z,8.30
2022-12-03T02:37:24.168Z,8.35
2022-12-03T02:39:55.185Z,7.55
2022-12-03T02:42:39.268Z,7.43
2022-12-03T02:45:13.284Z,8.18
2022-12-03T02:47:43.925Z,8.23
2022-12-03T02:50:15.121Z,8.60
2022-12-03T02:52:46.034Z,8.18
2022-12-03T02:55:16.072Z,7.75
2022-12-03T02:57:46.077Z,8.00
2022-12-03T03:00:17.420Z,7.47
2022-12-03T03:02:47.123Z,8.38
2022-12-03T03:05:16.628Z,7.95
2022-12-03T03:07:44.515Z,8.25
2022-12-03T03:10:15.986Z,7.70
2022-12-03T03:12:43.908Z,7.05
2022-12-03T03:15:12.700Z,6.97
2022-12-03T03:17:42.097Z,7.60
2022-12-03T03:20:11.392Z,7.30
2022-12-03T03:22:41.417Z,7.30
2022-12-03T03:25:11.725Z,8.57
2022-12-03T03:27:40.817Z,7.90
2022-12-03T03:30:09.938Z,7.55
2022-12-03T03:32:39.318Z,7.63
2022-12-03T03:35:09.777Z,7.88
2022-12-03T03:37:37.640Z,7.32
2022-12-03T03:40:06.285Z,8.35
2022-12-03T03:42:34.264Z,7.18
2022-12-03T03:45:02.023Z,7.13
2022-12-03T03:47:29.669Z,7.10
2022-12-03T03:49:57.608Z,7.97
2022-12-03T03:52:26.872Z,7.90
2022-12-03T03:54:54.736Z,8.07
2022-12-03T03:57:22.650Z,7.90
2022-12-03T03:59:50.387Z,8.27
2022-12-03T04:02:20.504Z,7.80
2022-12-03T04:04:49.548Z,7.32
2022-12-03T04:07:17.592Z,7.50
2022-12-03T04:09:46.571Z,7.38
2022-12-03T04:12:31.875Z,7.05
2022-12-03T04:14:59.548Z,6.60
2022-12-03T04:17:27.591Z,7.63
2022-12-03T04:19:55.306Z,8.13
2022-12-03T04:22:42.691Z,7.65
2022-12-03T04:25:29.493Z,7.32
2022-12-03T04:28:14.671Z,7.35
2022-12-03T04:30:42.348Z,6.70
2022-12-03T04:33:27.399Z,6.88
2022-12-03T04:35:55.136Z,7.82
2022-12-03T04:38:22.815Z,7.93
2022-12-03T04:41:04.784Z,6.68
2022-12-03T04:43:33.870Z,7.65
2022-12-03T04:46:03.556Z,7.88
2022-12-03T04:48:31.218Z,7.38
2022-12-03T04:50:58.796Z,7.07
2022-12-03T04:53:26.378Z,7.68
2022-12-03T04:55:55.417Z,7.47
2022-12-03T04:58:23.294Z,7.78
2022-12-03T05:00:51.278Z,7.05
2022-12-03T05:03:18.931Z,8.00
2022-12-03T05:05:47.029Z,7.32
2022-12-03T05:08:14.713Z,8.27
2022-12-03T05:10:42.382Z,7.68
2022-12-03T05:13:11.333Z,7.60
2022-12-03T05:15:38.966Z,8.10
2022-12-03T05:18:06.597Z,7.82
2022-12-03T05:20:42.007Z,7.72
2022-12-03T05:23:10.323Z,8.00
2022-12-03T05:25:38.006Z,8.15
2022-12-03T05:28:06.661Z,7.60
2022-12-03T05:30:36.119Z,8.25
2022-12-03T05:33:03.973Z,8.02
2022-12-03T05:35:31.624Z,8.50
2022-12-03T05:37:59.318Z,7.43
2022-12-03T05:40:26.977Z,8.38
2022-12-03T05:42:53.696Z,8.38
2022-12-03T05:45:22.305Z,8.43
2022-12-03T05:47:51.331Z,9.15
2022-12-03T05:50:19.652Z,9.10
2022-12-03T05:52:47.444Z,9.15
2022-12-03T05:55:15.332Z,9.07
2022-12-03T05:57:43.109Z,8.70
2022-12-03T06:00:15.364Z,9.43
2022-12-03T06:02:44.972Z,10.05
2022-12-03T06:05:14.865Z,9.43
2022-12-03T06:07:42.903Z,9.20
2022-12-03T06:10:13.306Z,9.07
2022-12-03T06:12:41.272Z,9.93
2022-12-03T06:15:10.412Z,10.70
2022-12-03T06:17:38.214Z,9.25
2022-12-03T06:20:07.104Z,9.05
2022-12-03T06:22:36.051Z,9.93
2022-12-03T06:25:07.101Z,9.45
2022-12-03T06:27:35.165Z,9.85
2022-12-03T06:30:02.863Z,9.68
2022-12-03T06:32:30.481Z,9.23
2022-12-03T06:34:58.093Z,8.85
2022-12-03T06:37:25.714Z,10.45
2022-12-03T06:39:54.666Z,11.18
2022-12-03T06:42:22.421Z,10.27
2022-12-03T06:44:50.001Z,9.93
2022-12-03T06:47:17.603Z,10.70
2022-12-03T06:49:45.271Z,9.80
2022-12-03T06:52:12.886Z,10.50
2022-12-03T06:54:40.438Z,9.65
2022-12-03T06:57:09.385Z,9.52
2022-12-03T06:59:37.513Z,9.63
2022-12-03T07:02:05.318Z,10.82
2022-12-03T07:04:33.003Z,10.80
2022-12-03T07:07:00.602Z,11.38
2022-12-03T07:09:28.265Z,14.32
2022-12-03T07:11:55.876Z,11.30
2022-12-03T07:14:24.882Z,10.77
2022-12-03T07:16:52.616Z,11.52
2022-12-03T07:19:20.255Z,11.18
2022-12-03T07:21:48.114Z,11.43
2022-12-03T07:24:15.750Z,11.27
2022-12-03T07:26:43.347Z,11.48
2022-12-03T07:29:10.985Z,12.38
2022-12-03T07:31:40.167Z,12.65
2022-12-03T07:34:08.045Z,15.50
2022-12-03T07:36:35.728Z,14.00
2022-12-03T07:39:03.355Z,13.35
2022-12-03T07:41:30.994Z,13.10
2022-12-03T07:43:58.646Z,12.65
2022-12-03T07:46:26.520Z,13.07
2022-12-03T07:48:55.525Z,13.73
2022-12-03T07:51:26.182Z,13.50
2022-12-03T07:53:58.346Z,11.93
2022-12-03T07:56:26.108Z,12.48
2022-12-03T07:58:53.670Z,12.63
2022-12-03T08:01:21.394Z,13.57
2022-12-03T08:03:49.121Z,14.38
2022-12-03T08:06:18.086Z,13.23
2022-12-03T08:08:45.736Z,13.57
2022-12-03T08:11:15.370Z,12.77
2022-12-03T08:13:43.170Z,17.05
2022-12-03T08:16:17.215Z,20.67
2022-12-03T08:18:45.951Z,15.85
2022-12-03T08:21:15.215Z,16.65
2022-12-03T08:23:44.675Z,15.50
2022-12-03T08:26:20.526Z,14.77
2022-12-03T08:28:48.121Z,14.27
2022-12-03T08:31:19.912Z,15.27
2022-12-03T08:33:49.342Z,14.65
2022-12-03T08:36:22.563Z,14.00
2022-12-03T08:38:53.518Z,14.23
2022-12-03T08:41:36.187Z,15.05
2022-12-03T08:44:16.160Z,15.13
2022-12-03T08:46:43.742Z,14.70
2022-12-03T08:49:12.098Z,14.10
2022-12-03T08:51:39.755Z,14.02
2022-12-03T08:54:15.341Z,14.93
2022-12-03T08:56:43.831Z,14.35
2022-12-03T08:59:27.498Z,13.90
2022-12-03T09:01:55.614Z,14.55
2022-12-03T09:04:26.152Z,14.55
2022-12-03T09:06:54.874Z,14.48
2022-12-03T09:09:24.311Z,14.52
2022-12-03T09:11:53.759Z,14.55
2022-12-03T09:14:22.649Z,15.07
2022-12-03T09:16:51.872Z,14.70
2022-12-03T09:19:19.566Z,14.70
2022-12-03T09:21:47.106Z,15.50
2022-12-03T09:24:14.871Z,14.35
2022-12-03T09:26:43.847Z,15.40
2022-12-03T09:29:12.758Z,15.00
2022-12-03T09:31:40.921Z,14.75
2022-12-03T09:34:09.155Z,15.80
2022-12-03T09:36:37.862Z,15.82
2022-12-03T09:39:05.947Z,15.68
2022-12-03T09:41:33.628Z,16.20
2022-12-03T09:44:04.968Z,17.05
2022-12-03T09:46:35.118Z,16.88
2022-12-03T09:49:03.710Z,17.48
2022-12-03T09:51:33.778Z,15.60
2022-12-03T09:54:02.295Z,24.00
2022-12-03T09:56:30.002Z,18.25
2022-12-03T09:58:57.621Z,16.17
2022-12-03T10:01:30.133Z,14.80
2022-12-03T10:03:58.597Z,15.65
2022-12-03T10:06:26.365Z,14.88
2022-12-03T10:08:55.802Z,15.00
2022-12-03T10:11:25.726Z,16.67
2022-12-03T10:13:55.051Z,18.00
2022-12-03T10:16:22.898Z,16.42
2022-12-03T10:18:54.424Z,15.55
2022-12-03T10:21:26.483Z,16.10
2022-12-03T10:24:19.145Z,15.60
2022-12-03T10:26:48.598Z,15.90
2022-12-03T10:29:19.884Z,15.75
2022-12-03T10:31:55.991Z,16.58
2022-12-03T10:34:31.493Z,15.85
2022-12-03T10:37:11.474Z,16.67
2022-12-03T10:39:56.201Z,16.35
2022-12-03T10:42:25.547Z,15.32
2022-12-03T10:45:09.202Z,16.35
2022-12-03T10:50:14.995Z,15.38
2022-12-03T10:52:42.627Z,17.48
2022-12-03T10:55:11.664Z,16.10
2022-12-03T10:57:45.082Z,15.05
2022-12-03T11:00:17.543Z,15.32
2022-12-03T11:02:46.785Z,17.17
2022-12-03T11:05:22.186Z,17.65
2022-12-03T11:07:50.152Z,15.68
2022-12-03T11:10:19.830Z,15.70
2022-12-03T11:13:26.721Z,14.85
2022-12-03T11:15:54.424Z,14.60
2022-12-03T11:19:02.146Z,15.38
2022-12-03T11:21:31.527Z,14.68
2022-12-03T11:24:18.536Z,16.05
2022-12-03T11:27:21.833Z,15.43
2022-12-03T11:29:55.401Z,10.63
2022-12-03T11:33:08.299Z,14.07
2022-12-03T11:35:39.236Z,13.57
2022-12-03T11:38:50.756Z,15.85
2022-12-03T11:41:31.840Z,15.10
2022-12-03T11:44:30.512Z,14.60
2022-12-03T11:47:00.468Z,13.55
2022-12-03T11:49:52.076Z,14.00
2022-12-03T11:52:23.766Z,13.98
2022-12-03T11:54:55.385Z,13.77
2022-12-03T11:57:28.389Z,14.73
2022-12-03T12:00:07.055Z,14.27
2022-12-03T12:02:39.625Z,14.25
2022-12-03T12:05:26.057Z,14.20
2022-12-03T12:07:54.748Z,14.52
2022-12-03T12:10:43.544Z,15.80
2022-12-03T12:13:52.086Z,13.70
2022-12-03T12:16:50.285Z,14.43
2022-12-03T12:19:39.633Z,12.60
2022-12-03T12:22:15.424Z,14.02
2022-12-03T12:24:52.199Z,11.73
2022-12-03T12:27:22.861Z,12.73
2022-12-03T12:29:55.704Z,12.23
2022-12-03T12:32:27.220Z,11.95
2022-12-03T12:34:57.797Z,11.35
2022-12-03T12:37:33.438Z,10.85
2022-12-03T12:40:03.444Z,11.68
2022-12-03T12:42:35.694Z,11.43
2022-12-03T12:45:14.359Z,11.65
2022-12-03T12:47:47.898Z,10.98
2022-12-03T12:50:17.252Z,11.25
2022-12-03T12:52:52.166Z,10.60
2022-12-03T12:55:21.154Z,11.48
2022-12-03T12:57:50.450Z,11.40
2022-12-03T13:00:20.792Z,10.35
2022-12-03T13:02:53.145Z,10.60
2022-12-03T13:05:20.961Z,9.97
2022-12-03T13:07:49.087Z,10.73
2022-12-03T13:10:36.561Z,10.27
2022-12-03T13:13:21.576Z,10.88
2022-12-03T13:15:52.726Z,10.90
2022-12-03T13:18:32.106Z,11.20
2022-12-03T13:21:00.401Z,11.13
2022-12-03T13:23:33.288Z,11.40
2022-12-03T13:26:18.707Z,12.10
2022-12-03T13:28:56.349Z,12.80
2022-12-03T13:31:27.175Z,12.18
2022-12-03T13:33:55.439Z,12.15
2022-12-03T13:36:28.252Z,12.50
2022-12-03T13:38:55.927Z,12.27
2022-12-03T13:41:41.217Z,11.90
2022-12-03T13:44:18.928Z,11.48
2022-12-03T13:46:46.890Z,11.90
2022-12-03T13:49:20.771Z,13.32
2022-12-03T13:51:49.325Z,11.18
2022-12-03T13:54:21.079Z,11.50
2022-12-03T13:56:49.171Z,10.90
2022-12-03T13:59:22.956Z,11.27
2022-12-03T14:01:53.868Z,11.60
2022-12-03T14:04:21.582Z,11.30
2022-12-03T14:06:49.234Z,11.18
2022-12-03T14:09:16.848Z,11.02
2022-12-03T14:12:01.890Z,11.50
2022-12-03T14:14:30.980Z,12.05
2022-12-03T14:17:00.179Z,11.98
2022-12-03T14:19:28.047Z,11.20
2022-12-03T14:21:55.626Z,10.80
2022-12-03T14:24:23.267Z,10.05
2022-12-03T14:26:50.878Z,11.15
2022-12-03T14:29:18.466Z,11.80
2022-12-03T14:31:47.432Z,10.73
2022-12-03T14:34:15.136Z,11.73
2022-12-03T14:36:43.052Z,9.38
2022-12-03T14:39:10.781Z,9.95
2022-12-03T14:41:58.039Z,10.13
2022-12-03T14:44:25.627Z,10.40
2022-12-03T14:46:57.394Z,9.80
2022-12-03T14:49:25.337Z,10.30
2022-12-03T14:51:52.966Z,10.60
2022-12-03T14:54:20.575Z,10.10
2022-12-03T14:56:48.424Z,9.65
2022-12-03T14:59:16.114Z,10.30
2022-12-03T15:01:43.753Z,11.38
2022-12-03T15:04:12.806Z,10.93
2022-12-03T15:06:40.529Z,10.35
2022-12-03T15:09:08.480Z,10.90
2022-12-03T15:11:37.561Z,10.00
2022-12-03T15:14:08.209Z,10.10
2022-12-03T15:16:35.985Z,10.48
2022-12-03T15:19:03.635Z,10.07
2022-12-03T15:21:34.795Z,10.52
2022-12-03T15:24:02.749Z,13.32
2022-12-03T15:26:30.610Z,14.02
2022-12-03T15:28:58.567Z,14.50
2022-12-03T15:31:26.294Z,13.02
2022-12-03T15:33:53.974Z,10.85
2022-12-03T15:36:21.637Z,11.25
2022-12-03T15:38:50.670Z,11.43
2022-12-03T15:41:28.910Z,11.57
2022-12-03T15:43:58.557Z,14.82
2022-12-03T15:46:27.845Z,10.65
2022-12-03T15:48:55.903Z,12.38
2022-12-03T15:51:23.650Z,10.73
2022-12-03T15:53:52.883Z,11.95
2022-12-03T15:56:20.537Z,10.73
2022-12-03T15:58:48.147Z,10.50
2022-12-03T16:01:17.939Z,10.68
2022-12-03T16:03:45.640Z,11.13
2022-12-03T16:06:14.558Z,12.60
2022-12-03T16:08:42.132Z,11.57
2022-12-03T16:11:11.132Z,12.55
2022-12-03T16:13:38.776Z,11.32
2022-12-03T16:16:06.642Z,10.52
2022-12-03T16:18:34.409Z,10.68
2022-12-03T16:21:02.017Z,10.73
2022-12-03T16:23:29.637Z,12.02
2022-12-03T16:25:57.272Z,11.23
2022-12-03T16:28:26.240Z,12.20
2022-12-03T16:30:54.045Z,11.23
2022-12-03T16:33:27.325Z,11.13
2022-12-03T16:35:55.629Z,11.07
2022-12-03T16:38:23.346Z,11.75
2022-12-03T16:40:50.940Z,11.57
2022-12-03T16:43:18.575Z,12.10
2022-12-03T16:46:09.830Z,11.25
2022-12-03T16:48:37.679Z,11.43
2022-12-03T16:51:05.567Z,12.70
2022-12-03T16:53:33.322Z,12.40
2022-12-03T16:56:01.272Z,11.48
2022-12-03T16:58:29.356Z,11.68
2022-12-03T17:00:58.318Z,12.27
2022-12-03T17:03:32.099Z,13.18
2022-12-03T17:06:01.417Z,11.30
2022-12-03T17:08:29.262Z,12.85
2022-12-03T17:10:56.972Z,11.43
2022-12-03T17:13:24.881Z,12.25
2022-12-03T17:15:52.593Z,13.25
2022-12-03T17:18:22.827Z,13.10
2022-12-03T17:20:50.490Z,11.73
2022-12-03T17:23:18.586Z,11.52
2022-12-03T17:25:46.241Z,11.63
2022-12-03T17:28:13.850Z,28.88
2022-12-03T17:30:41.442Z,13.75
2022-12-03T17:33:09.059Z,14.00
2022-12-03T17:35:38.329Z,15.23
2022-12-03T17:38:05.952Z,13.43
2022-12-03T17:40:33.568Z,11.65
2022-12-03T17:43:01.196Z,11.50
2022-12-03T17:45:28.768Z,12.23
2022-12-03T17:47:56.390Z,10.43
2022-12-03T17:50:25.689Z,11.75
2022-12-03T17:52:54.642Z,12.13
2022-12-03T17:55:31.969Z,12.05
2022-12-03T17:58:03.803Z,9.57
2022-12-03T18:00:31.623Z,11.25
2022-12-03T18:02:59.334Z,11.05
2022-12-03T18:05:26.934Z,11.02
2022-12-03T18:07:55.960Z,10.35
2022-12-03T18:10:23.848Z,9.85
2022-12-03T18:12:51.456Z,10.75
2022-12-03T18:15:19.064Z,10.70
2022-12-03T18:17:46.668Z,10.98
2022-12-03T18:20:14.630Z,10.95
2022-12-03T18:22:42.440Z,11.27
2022-12-03T18:25:11.997Z,12.13
2022-12-03T18:27:39.627Z,10.73
2022-12-03T18:30:08.592Z,10.40
2022-12-03T18:32:36.167Z,11.48
2022-12-03T18:35:04.073Z,10.93
2022-12-03T18:37:33.201Z,11.25
2022-12-03T18:40:02.041Z,10.43
2022-12-03T18:42:31.432Z,11.10
2022-12-03T18:44:59.315Z,12.27
2022-12-03T18:47:29.342Z,11.48
2022-12-03T18:49:57.814Z,11.55
2022-12-03T18:52:25.871Z,10.70
2022-12-03T18:54:54.371Z,11.43
2022-12-03T18:57:21.975Z,11.05
2022-12-03T18:59:51.011Z,11.10
2022-12-03T19:05:10.446Z,10.13
2022-12-03T19:07:38.259Z,9.90
2022-12-03T19:10:07.007Z,11.43
2022-12-03T19:12:34.615Z,10.68
2022-12-03T19:15:03.936Z,11.57
2022-12-03T19:17:31.883Z,10.73
2022-12-03T19:19:59.466Z,10.77
2022-12-03T19:22:29.083Z,11.52
2022-12-03T19:24:56.913Z,10.77
2022-12-03T19:27:24.594Z,11.02
2022-12-03T19:29:52.517Z,10.40
2022-12-03T19:32:21.559Z,11.13
2022-12-03T19:34:49.171Z,10.85
2022-12-03T19:37:16.788Z,11.02
2022-12-03T19:39:44.382Z,11.10
2022-12-03T19:42:11.973Z,11.65
2022-12-03T19:44:40.028Z,11.57
2022-12-03T19:47:07.639Z,12.00
2022-12-03T19:49:36.645Z,11.55
2022-12-03T19:52:04.541Z,11.50
2022-12-03T19:54:32.413Z,11.68
2022-12-03T19:57:00.385Z,12.13
2022-12-03T19:59:28.007Z,11.07
2022-12-03T20:01:55.680Z,11.15
2022-12-03T20:04:23.478Z,10.95
2022-12-03T20:06:52.426Z,10.68
2022-12-03T20:09:21.364Z,11.80
2022-12-03T20:11:51.645Z,12.15
2022-12-03T20:14:19.434Z,11.55
2022-12-03T20:16:47.605Z,12.60
2022-12-03T20:19:17.294Z,12.30
2022-12-03T20:21:45.519Z,11.57
2022-12-03T20:24:17.839Z,12.98
2022-12-03T20:26:45.626Z,13.52
2022-12-03T20:29:13.310Z,13.80
2022-12-03T20:31:41.082Z,12.60
2022-12-03T20:34:08.696Z,14.27
2022-12-03T20:36:36.948Z,12.75
2022-12-03T20:39:07.035Z,12.43
2022-12-03T20:41:37.511Z,12.85
2022-12-03T20:44:07.296Z,13.38
2022-12-03T20:46:35.214Z,13.02
2022-12-03T20:49:03.152Z,13.30
2022-12-03T20:51:32.161Z,13.18
2022-12-03T20:54:01.433Z,13.50
2022-12-03T20:56:31.203Z,15.82
2022-12-03T20:59:01.792Z,14.27
2022-12-03T21:01:29.574Z,14.00
2022-12-03T21:03:58.409Z,13.13
2022-12-03T21:06:29.729Z,12.45
2022-12-03T21:08:58.922Z,14.27
2022-12-03T21:11:29.454Z,13.52
2022-12-03T21:13:58.200Z,14.93
2022-12-03T21:16:59.120Z,12.65
2022-12-03T21:19:17.967Z,13.02
2022-12-03T21:21:45.534Z,12.90
2022-12-03T21:24:14.242Z,13.32
2022-12-03T21:26:42.352Z,12.70
2022-12-03T21:29:09.993Z,12.95
2022-12-03T21:31:39.786Z,13.57
2022-12-03T21:34:08.407Z,13.90
2022-12-03T21:36:36.017Z,14.27
2022-12-03T21:39:04.204Z,14.80
2022-12-03T21:41:31.881Z,14.10
2022-12-03T21:43:59.627Z,14.30
2022-12-03T21:47:10.312Z,13.63
2022-12-03T21:49:19.243Z,13.65
2022-12-03T21:51:46.919Z,13.90
2022-12-03T21:54:14.595Z,13.23
2022-12-03T21:56:42.243Z,13.18
2022-12-03T21:59:09.889Z,13.30
2022-12-03T22:01:38.013Z,12.07
2022-12-03T22:04:07.198Z,12.98
2022-12-03T22:06:36.166Z,12.38
2022-12-03T22:09:03.815Z,12.35
2022-12-03T22:11:31.476Z,11.77
2022-12-03T22:13:59.110Z,12.90
2022-12-03T22:16:26.771Z,12.68
2022-12-03T22:18:55.338Z,12.63
2022-12-03T22:21:24.453Z,13.77
2022-12-03T22:23:53.435Z,12.63
2022-12-03T22:26:21.059Z,11.80
2022-12-03T22:28:50.674Z,12.77
2022-12-03T22:31:19.218Z,12.63
2022-12-03T22:33:48.287Z,11.60
2022-12-03T22:36:21.074Z,12.20
2022-12-03T22:38:49.592Z,11.68
2022-12-03T22:41:19.072Z,11.00
2022-12-03T22:43:47.337Z,11.07
2022-12-03T22:46:15.934Z,11.35
2022-12-03T22:48:45.239Z,11.48
2022-12-03T22:51:17.277Z,11.52
2022-12-03T22:53:46.872Z,10.77
2022-12-03T22:56:15.977Z,11.70
2022-12-03T22:58:44.976Z,13.75
2022-12-03T23:01:22.219Z,12.05
2022-12-03T23:03:50.172Z,11.25
2022-12-03T23:06:18.537Z,11.13
2022-12-03T23:08:46.308Z,10.38
2022-12-03T23:11:14.777Z,11.02
2022-12-03T23:13:42.422Z,9.93
2022-12-03T23:16:15.348Z,10.60
2022-12-03T23:18:42.981Z,9.88
2022-12-03T23:21:10.841Z,9.45
2022-12-03T23:23:38.402Z,10.25
2022-12-03T23:26:08.239Z,9.82
2022-12-03T23:28:38.156Z,9.20
2022-12-03T23:31:06.859Z,8.93
2022-12-03T23:33:38.566Z,9.50
2022-12-03T23:36:06.784Z,9.20
2022-12-03T23:38:34.575Z,9.85
2022-12-03T23:41:04.652Z,9.63
2022-12-03T23:43:32.268Z,9.75
2022-12-03T23:46:04.108Z,9.07
2022-12-03T23:48:31.849Z,8.95
2022-12-03T23:51:00.916Z,9.23
2022-12-03T23:53:28.555Z,9.73
2022-12-03T23:55:56.168Z,9.27
2022-12-03T23:58:23.768Z,9.68
